sensor_id;sensor_type;location;lat;lon;timestamp;P1;durP1;ratioP1;P2;durP2;ratioP2
3561;SDS011;1795;52.074;4.754;2022-10-26T00:01:39;11.80;;;6.57;;
3561;SDS011;1795;52.074;4.754;2022-10-26T00:04:07;10.43;;;6.18;;
3561;SDS011;1795;52.074;4.754;2022-10-26T00:06:35;10.48;;;6.07;;
3561;SDS011;1795;52.074;4.754;2022-10-26T00:09:05;9.60;;;6.10;;
3561;SDS011;1795;52.074;4.754;2022-10-26T00:11:32;11.20;;;6.10;;
3561;SDS011;1795;52.074;4.754;2022-10-26T00:14:00;8.10;;;6.30;;
3561;SDS011;1795;52.074;4.754;2022-10-26T00:16:28;9.10;;;6.00;;
3561;SDS011;1795;52.074;4.754;2022-10-26T00:18:56;10.55;;;6.50;;
3561;SDS011;1795;52.074;4.754;2022-10-26T00:21:24;9.25;;;6.40;;
3561;SDS011;1795;52.074;4.754;2022-10-26T00:23:52;11.10;;;6.30;;
3561;SDS011;1795;52.074;4.754;2022-10-26T00:26:21;10.50;;;6.40;;
3561;SDS011;1795;52.074;4.754;2022-10-26T00:28:51;10.55;;;6.32;;
3561;SDS011;1795;52.074;4.754;2022-10-26T00:31:19;11.73;;;6.57;;
3561;SDS011;1795;52.074;4.754;2022-10-26T00:33:50;8.48;;;6.40;;
3561;SDS011;1795;52.074;4.754;2022-10-26T00:36:18;9.07;;;6.83;;
3561;SDS011;1795;52.074;4.754;2022-10-26T00:38:47;11.05;;;7.25;;
3561;SDS011;1795;52.074;4.754;2022-10-26T00:41:16;9.75;;;6.90;;
3561;SDS011;1795;52.074;4.754;2022-10-26T00:43:46;12.20;;;6.78;;
3561;SDS011;1795;52.074;4.754;2022-10-26T00:46:15;10.65;;;7.03;;
3561;SDS011;1795;52.074;4.754;2022-10-26T00:48:48;11.50;;;7.80;;
3561;SDS011;1795;52.074;4.754;2022-10-26T00:51:19;10.30;;;6.80;;
3561;SDS011;1795;52.074;4.754;2022-10-26T00:53:51;10.10;;;7.30;;
3561;SDS011;1795;52.074;4.754;2022-10-26T00:56:21;8.23;;;6.10;;
3561;SDS011;1795;52.074;4.754;2022-10-26T00:58:51;12.73;;;7.05;;
3561;SDS011;1795;52.074;4.754;2022-10-26T01:01:20;10.27;;;6.30;;
3561;SDS011;1795;52.074;4.754;2022-10-26T01:03:48;11.75;;;7.07;;
3561;SDS011;1795;52.074;4.754;2022-10-26T01:06:16;11.23;;;7.05;;
3561;SDS011;1795;52.074;4.754;2022-10-26T01:08:45;9.43;;;7.40;;
3561;SDS011;1795;52.074;4.754;2022-10-26T01:11:13;12.25;;;7.70;;
3561;SDS011;1795;52.074;4.754;2022-10-26T01:13:42;10.13;;;6.38;;
3561;SDS011;1795;52.074;4.754;2022-10-26T01:19:21;11.18;;;6.90;;
3561;SDS011;1795;52.074;4.754;2022-10-26T01:22:17;13.30;;;7.40;;
3561;SDS011;1795;52.074;4.754;2022-10-26T01:25:00;10.45;;;6.80;;
3561;SDS011;1795;52.074;4.754;2022-10-26T01:27:35;8.38;;;6.47;;
3561;SDS011;1795;52.074;4.754;2022-10-26T01:33:08;10.40;;;7.00;;
3561;SDS011;1795;52.074;4.754;2022-10-26T01:35:45;14.25;;;7.43;;
3561;SDS011;1795;52.074;4.754;2022-10-26T01:38:28;14.05;;;6.93;;
3561;SDS011;1795;52.074;4.754;2022-10-26T01:41:03;11.43;;;6.55;;
3561;SDS011;1795;52.074;4.754;2022-10-26T01:43:35;10.88;;;7.30;;
3561;SDS011;1795;52.074;4.754;2022-10-26T01:46:07;10.93;;;7.07;;
3561;SDS011;1795;52.074;4.754;2022-10-26T01:48:37;13.63;;;7.13;;
3561;SDS011;1795;52.074;4.754;2022-10-26T01:51:07;10.60;;;7.00;;
3561;SDS011;1795;52.074;4.754;2022-10-26T01:53:41;9.80;;;7.25;;
3561;SDS011;1795;52.074;4.754;2022-10-26T01:56:12;10.65;;;7.65;;
3561;SDS011;1795;52.074;4.754;2022-10-26T01:58:54;10.93;;;7.40;;
3561;SDS011;1795;52.074;4.754;2022-10-26T02:01:47;10.57;;;7.77;;
3561;SDS011;1795;52.074;4.754;2022-10-26T02:04:43;10.63;;;7.80;;
3561;SDS011;1795;52.074;4.754;2022-10-26T02:07:21;10.05;;;7.15;;
3561;SDS011;1795;52.074;4.754;2022-10-26T02:09:56;13.75;;;7.55;;
3561;SDS011;1795;52.074;4.754;2022-10-26T02:12:32;10.20;;;7.40;;
3561;SDS011;1795;52.074;4.754;2022-10-26T02:15:06;9.35;;;6.80;;
3561;SDS011;1795;52.074;4.754;2022-10-26T02:17:41;10.70;;;6.57;;
3561;SDS011;1795;52.074;4.754;2022-10-26T02:20:16;11.70;;;6.83;;
3561;SDS011;1795;52.074;4.754;2022-10-26T02:22:48;10.10;;;5.93;;
3561;SDS011;1795;52.074;4.754;2022-10-26T02:25:19;8.10;;;6.30;;
3561;SDS011;1795;52.074;4.754;2022-10-26T02:27:50;11.43;;;7.35;;
3561;SDS011;1795;52.074;4.754;2022-10-26T02:30:22;10.97;;;6.60;;
3561;SDS011;1795;52.074;4.754;2022-10-26T02:32:52;9.88;;;6.13;;
3561;SDS011;1795;52.074;4.754;2022-10-26T02:35:24;9.37;;;6.90;;
3561;SDS011;1795;52.074;4.754;2022-10-26T02:37:55;9.77;;;6.10;;
3561;SDS011;1795;52.074;4.754;2022-10-26T02:40:26;8.13;;;6.15;;
3561;SDS011;1795;52.074;4.754;2022-10-26T02:42:56;10.18;;;6.18;;
3561;SDS011;1795;52.074;4.754;2022-10-26T02:45:30;9.27;;;6.10;;
3561;SDS011;1795;52.074;4.754;2022-10-26T02:48:02;8.00;;;5.82;;
3561;SDS011;1795;52.074;4.754;2022-10-26T02:50:32;9.55;;;6.07;;
3561;SDS011;1795;52.074;4.754;2022-10-26T02:53:09;10.05;;;6.30;;
3561;SDS011;1795;52.074;4.754;2022-10-26T02:55:45;9.77;;;5.93;;
3561;SDS011;1795;52.074;4.754;2022-10-26T02:58:17;8.23;;;6.00;;
3561;SDS011;1795;52.074;4.754;2022-10-26T03:00:49;15.30;;;6.40;;
3561;SDS011;1795;52.074;4.754;2022-10-26T03:03:19;8.52;;;6.18;;
3561;SDS011;1795;52.074;4.754;2022-10-26T03:05:47;11.52;;;5.72;;
3561;SDS011;1795;52.074;4.754;2022-10-26T03:08:16;9.70;;;5.97;;
3561;SDS011;1795;52.074;4.754;2022-10-26T03:10:44;10.07;;;6.38;;
3561;SDS011;1795;52.074;4.754;2022-10-26T03:13:12;8.20;;;5.82;;
3561;SDS011;1795;52.074;4.754;2022-10-26T03:15:40;11.67;;;6.00;;
3561;SDS011;1795;52.074;4.754;2022-10-26T03:18:08;7.72;;;5.55;;
3561;SDS011;1795;52.074;4.754;2022-10-26T03:20:38;8.07;;;5.70;;
3561;SDS011;1795;52.074;4.754;2022-10-26T03:23:05;12.02;;;6.03;;
3561;SDS011;1795;52.074;4.754;2022-10-26T03:25:33;9.48;;;6.03;;
3561;SDS011;1795;52.074;4.754;2022-10-26T03:28:02;8.95;;;5.53;;
3561;SDS011;1795;52.074;4.754;2022-10-26T03:30:30;6.40;;;5.40;;
3561;SDS011;1795;52.074;4.754;2022-10-26T03:32:58;9.50;;;6.40;;
3561;SDS011;1795;52.074;4.754;2022-10-26T03:35:26;8.73;;;5.88;;
3561;SDS011;1795;52.074;4.754;2022-10-26T03:37:55;7.95;;;5.75;;
3561;SDS011;1795;52.074;4.754;2022-10-26T03:40:23;9.52;;;6.22;;
3561;SDS011;1795;52.074;4.754;2022-10-26T03:42:51;7.82;;;6.13;;
3561;SDS011;1795;52.074;4.754;2022-10-26T03:45:19;10.48;;;6.18;;
3561;SDS011;1795;52.074;4.754;2022-10-26T03:51:28;11.60;;;6.40;;
3561;SDS011;1795;52.074;4.754;2022-10-26T03:53:58;12.75;;;5.80;;
3561;SDS011;1795;52.074;4.754;2022-10-26T03:56:25;9.48;;;5.97;;
3561;SDS011;1795;52.074;4.754;2022-10-26T03:58:53;10.13;;;5.93;;
3561;SDS011;1795;52.074;4.754;2022-10-26T04:01:21;8.23;;;5.90;;
3561;SDS011;1795;52.074;4.754;2022-10-26T04:03:49;9.23;;;5.82;;
3561;SDS011;1795;52.074;4.754;2022-10-26T04:06:17;12.03;;;6.40;;
3561;SDS011;1795;52.074;4.754;2022-10-26T04:08:45;11.45;;;6.45;;
3561;SDS011;1795;52.074;4.754;2022-10-26T04:11:14;11.13;;;7.80;;
3561;SDS011;1795;52.074;4.754;2022-10-26T04:13:42;9.93;;;6.05;;
3561;SDS011;1795;52.074;4.754;2022-10-26T04:16:10;9.32;;;6.40;;
3561;SDS011;1795;52.074;4.754;2022-10-26T04:18:38;9.32;;;5.63;;
3561;SDS011;1795;52.074;4.754;2022-10-26T04:21:05;10.35;;;6.30;;
3561;SDS011;1795;52.074;4.754;2022-10-26T04:23:33;10.80;;;6.00;;
3561;SDS011;1795;52.074;4.754;2022-10-26T04:26:03;8.95;;;6.80;;
3561;SDS011;1795;52.074;4.754;2022-10-26T04:28:32;7.28;;;6.18;;
3561;SDS011;1795;52.074;4.754;2022-10-26T04:31:00;10.98;;;6.70;;
3561;SDS011;1795;52.074;4.754;2022-10-26T04:33:28;7.75;;;6.60;;
3561;SDS011;1795;52.074;4.754;2022-10-26T04:35:57;8.30;;;6.63;;
3561;SDS011;1795;52.074;4.754;2022-10-26T04:38:26;9.00;;;6.85;;
3561;SDS011;1795;52.074;4.754;2022-10-26T04:40:54;11.32;;;7.03;;
3561;SDS011;1795;52.074;4.754;2022-10-26T04:43:22;10.80;;;6.82;;
3561;SDS011;1795;52.074;4.754;2022-10-26T04:45:54;9.88;;;6.63;;
3561;SDS011;1795;52.074;4.754;2022-10-26T04:48:22;10.35;;;7.30;;
3561;SDS011;1795;52.074;4.754;2022-10-26T04:50:57;11.20;;;7.00;;
3561;SDS011;1795;52.074;4.754;2022-10-26T04:53:25;12.98;;;6.45;;
3561;SDS011;1795;52.074;4.754;2022-10-26T04:55:56;9.07;;;6.35;;
3561;SDS011;1795;52.074;4.754;2022-10-26T04:58:24;11.73;;;6.90;;
3561;SDS011;1795;52.074;4.754;2022-10-26T05:00:52;13.40;;;7.57;;
3561;SDS011;1795;52.074;4.754;2022-10-26T05:03:22;9.27;;;6.85;;
3561;SDS011;1795;52.074;4.754;2022-10-26T05:05:50;15.50;;;7.60;;
3561;SDS011;1795;52.074;4.754;2022-10-26T05:08:18;9.20;;;7.05;;
3561;SDS011;1795;52.074;4.754;2022-10-26T05:10:46;9.80;;;6.72;;
3561;SDS011;1795;52.074;4.754;2022-10-26T05:13:15;11.63;;;7.15;;
3561;SDS011;1795;52.074;4.754;2022-10-26T05:15:43;12.25;;;7.10;;
3561;SDS011;1795;52.074;4.754;2022-10-26T05:18:12;12.23;;;7.47;;
3561;SDS011;1795;52.074;4.754;2022-10-26T05:20:40;15.38;;;8.50;;
3561;SDS011;1795;52.074;4.754;2022-10-26T05:23:09;13.57;;;7.80;;
3561;SDS011;1795;52.074;4.754;2022-10-26T05:25:38;14.95;;;7.82;;
3561;SDS011;1795;52.074;4.754;2022-10-26T05:28:08;11.80;;;7.20;;
3561;SDS011;1795;52.074;4.754;2022-10-26T05:30:38;11.07;;;7.97;;
3561;SDS011;1795;52.074;4.754;2022-10-26T05:33:07;11.00;;;8.10;;
3561;SDS011;1795;52.074;4.754;2022-10-26T05:35:37;12.23;;;8.27;;
3561;SDS011;1795;52.074;4.754;2022-10-26T05:38:06;11.63;;;7.80;;
3561;SDS011;1795;52.074;4.754;2022-10-26T05:40:34;11.57;;;7.13;;
3561;SDS011;1795;52.074;4.754;2022-10-26T05:43:03;14.70;;;8.52;;
3561;SDS011;1795;52.074;4.754;2022-10-26T05:45:31;10.88;;;7.03;;
3561;SDS011;1795;52.074;4.754;2022-10-26T05:47:58;14.07;;;8.20;;
3561;SDS011;1795;52.074;4.754;2022-10-26T05:50:28;10.30;;;7.70;;
3561;SDS011;1795;52.074;4.754;2022-10-26T05:52:57;11.10;;;7.50;;
3561;SDS011;1795;52.074;4.754;2022-10-26T05:55:25;12.40;;;8.50;;
3561;SDS011;1795;52.074;4.754;2022-10-26T05:57:54;11.07;;;7.30;;
3561;SDS011;1795;52.074;4.754;2022-10-26T06:00:23;13.15;;;7.80;;
3561;SDS011;1795;52.074;4.754;2022-10-26T06:03:01;9.43;;;7.40;;
3561;SDS011;1795;52.074;4.754;2022-10-26T06:05:36;11.25;;;7.65;;
3561;SDS011;1795;52.074;4.754;2022-10-26T06:08:20;12.02;;;7.07;;
3561;SDS011;1795;52.074;4.754;2022-10-26T06:10:50;12.80;;;7.60;;
3561;SDS011;1795;52.074;4.754;2022-10-26T06:13:20;13.73;;;7.15;;
3561;SDS011;1795;52.074;4.754;2022-10-26T06:15:52;12.73;;;6.70;;
3561;SDS011;1795;52.074;4.754;2022-10-26T06:18:32;16.00;;;6.70;;
3561;SDS011;1795;52.074;4.754;2022-10-26T06:21:13;10.00;;;6.35;;
3561;SDS011;1795;52.074;4.754;2022-10-26T06:23:56;8.43;;;5.95;;
3561;SDS011;1795;52.074;4.754;2022-10-26T06:26:32;11.88;;;6.85;;
3561;SDS011;1795;52.074;4.754;2022-10-26T06:29:11;10.98;;;7.13;;
3561;SDS011;1795;52.074;4.754;2022-10-26T06:31:47;9.20;;;6.03;;
3561;SDS011;1795;52.074;4.754;2022-10-26T06:34:17;12.50;;;7.03;;
3561;SDS011;1795;52.074;4.754;2022-10-26T06:36:50;10.13;;;6.40;;
3561;SDS011;1795;52.074;4.754;2022-10-26T06:39:25;11.57;;;6.23;;
3561;SDS011;1795;52.074;4.754;2022-10-26T06:41:57;10.95;;;5.97;;
3561;SDS011;1795;52.074;4.754;2022-10-26T06:44:25;11.15;;;6.25;;
3561;SDS011;1795;52.074;4.754;2022-10-26T06:46:56;8.27;;;5.82;;
3561;SDS011;1795;52.074;4.754;2022-10-26T06:49:31;11.55;;;5.72;;
3561;SDS011;1795;52.074;4.754;2022-10-26T06:52:04;6.10;;;5.35;;
3561;SDS011;1795;52.074;4.754;2022-10-26T06:54:46;12.75;;;5.97;;
3561;SDS011;1795;52.074;4.754;2022-10-26T06:57:17;11.93;;;6.43;;
3561;SDS011;1795;52.074;4.754;2022-10-26T06:59:47;8.88;;;5.30;;
3561;SDS011;1795;52.074;4.754;2022-10-26T07:02:17;8.30;;;4.78;;
3561;SDS011;1795;52.074;4.754;2022-10-26T07:04:45;10.98;;;5.47;;
3561;SDS011;1795;52.074;4.754;2022-10-26T07:07:14;8.00;;;5.28;;
3561;SDS011;1795;52.074;4.754;2022-10-26T07:09:46;11.02;;;4.70;;
3561;SDS011;1795;52.074;4.754;2022-10-26T07:12:14;10.32;;;4.90;;
3561;SDS011;1795;52.074;4.754;2022-10-26T07:14:42;8.05;;;4.45;;
3561;SDS011;1795;52.074;4.754;2022-10-26T07:17:10;6.60;;;4.20;;
3561;SDS011;1795;52.074;4.754;2022-10-26T07:19:38;6.00;;;4.63;;
3561;SDS011;1795;52.074;4.754;2022-10-26T07:22:08;8.55;;;4.30;;
3561;SDS011;1795;52.074;4.754;2022-10-26T07:24:35;11.77;;;4.50;;
3561;SDS011;1795;52.074;4.754;2022-10-26T07:27:05;8.65;;;4.57;;
3561;SDS011;1795;52.074;4.754;2022-10-26T07:29:33;6.57;;;4.78;;
3561;SDS011;1795;52.074;4.754;2022-10-26T07:32:01;6.03;;;4.30;;
3561;SDS011;1795;52.074;4.754;2022-10-26T07:34:29;8.07;;;4.37;;
3561;SDS011;1795;52.074;4.754;2022-10-26T07:36:57;7.22;;;4.05;;
3561;SDS011;1795;52.074;4.754;2022-10-26T07:39:25;8.63;;;4.47;;
3561;SDS011;1795;52.074;4.754;2022-10-26T07:41:53;7.07;;;4.18;;
3561;SDS011;1795;52.074;4.754;2022-10-26T07:44:23;6.30;;;4.05;;
3561;SDS011;1795;52.074;4.754;2022-10-26T07:46:51;9.25;;;4.35;;
3561;SDS011;1795;52.074;4.754;2022-10-26T07:49:19;10.50;;;5.00;;
3561;SDS011;1795;52.074;4.754;2022-10-26T07:51:52;9.60;;;4.75;;
3561;SDS011;1795;52.074;4.754;2022-10-26T07:54:20;8.00;;;4.60;;
3561;SDS011;1795;52.074;4.754;2022-10-26T07:56:48;6.80;;;4.32;;
3561;SDS011;1795;52.074;4.754;2022-10-26T07:59:16;10.40;;;5.00;;
3561;SDS011;1795;52.074;4.754;2022-10-26T08:01:45;8.52;;;4.57;;
3561;SDS011;1795;52.074;4.754;2022-10-26T08:04:13;9.02;;;5.40;;
3561;SDS011;1795;52.074;4.754;2022-10-26T08:06:42;8.32;;;4.90;;
3561;SDS011;1795;52.074;4.754;2022-10-26T08:09:09;8.63;;;5.10;;
3561;SDS011;1795;52.074;4.754;2022-10-26T08:11:37;8.63;;;4.78;;
3561;SDS011;1795;52.074;4.754;2022-10-26T08:14:05;7.55;;;4.35;;
3561;SDS011;1795;52.074;4.754;2022-10-26T08:16:33;8.60;;;4.63;;
3561;SDS011;1795;52.074;4.754;2022-10-26T08:19:02;9.40;;;4.90;;
3561;SDS011;1795;52.074;4.754;2022-10-26T08:21:30;13.17;;;4.60;;
3561;SDS011;1795;52.074;4.754;2022-10-26T08:24:05;7.85;;;4.72;;
3561;SDS011;1795;52.074;4.754;2022-10-26T08:26:33;8.70;;;5.00;;
3561;SDS011;1795;52.074;4.754;2022-10-26T08:29:01;7.60;;;5.00;;
3561;SDS011;1795;52.074;4.754;2022-10-26T08:31:29;11.80;;;5.10;;
3561;SDS011;1795;52.074;4.754;2022-10-26T08:33:57;8.77;;;5.50;;
3561;SDS011;1795;52.074;4.754;2022-10-26T08:36:28;9.50;;;4.47;;
3561;SDS011;1795;52.074;4.754;2022-10-26T08:38:56;9.10;;;5.00;;
3561;SDS011;1795;52.074;4.754;2022-10-26T08:41:27;10.65;;;4.70;;
3561;SDS011;1795;52.074;4.754;2022-10-26T08:44:03;8.35;;;4.70;;
3561;SDS011;1795;52.074;4.754;2022-10-26T08:46:44;8.80;;;4.70;;
3561;SDS011;1795;52.074;4.754;2022-10-26T08:49:17;10.60;;;4.72;;
3561;SDS011;1795;52.074;4.754;2022-10-26T08:51:50;6.53;;;4.60;;
3561;SDS011;1795;52.074;4.754;2022-10-26T08:54:24;7.18;;;4.50;;
3561;SDS011;1795;52.074;4.754;2022-10-26T08:56:59;6.93;;;4.45;;
3561;SDS011;1795;52.074;4.754;2022-10-26T08:59:32;6.00;;;4.40;;
3561;SDS011;1795;52.074;4.754;2022-10-26T09:02:07;7.78;;;4.47;;
3561;SDS011;1795;52.074;4.754;2022-10-26T09:04:38;6.53;;;4.30;;
3561;SDS011;1795;52.074;4.754;2022-10-26T09:07:10;8.18;;;4.03;;
3561;SDS011;1795;52.074;4.754;2022-10-26T09:09:45;6.82;;;3.83;;
3561;SDS011;1795;52.074;4.754;2022-10-26T09:12:23;8.38;;;3.72;;
3561;SDS011;1795;52.074;4.754;2022-10-26T09:15:03;7.43;;;3.80;;
3561;SDS011;1795;52.074;4.754;2022-10-26T09:17:42;5.57;;;3.80;;
3561;SDS011;1795;52.074;4.754;2022-10-26T09:20:29;7.18;;;3.70;;
3561;SDS011;1795;52.074;4.754;2022-10-26T09:23:12;12.40;;;4.10;;
3561;SDS011;1795;52.074;4.754;2022-10-26T09:25:56;10.23;;;3.58;;
3561;SDS011;1795;52.074;4.754;2022-10-26T09:28:26;9.37;;;3.60;;
3561;SDS011;1795;52.074;4.754;2022-10-26T09:30:57;6.82;;;3.45;;
3561;SDS011;1795;52.074;4.754;2022-10-26T09:33:26;7.15;;;3.25;;
3561;SDS011;1795;52.074;4.754;2022-10-26T09:35:56;9.02;;;3.00;;
3561;SDS011;1795;52.074;4.754;2022-10-26T09:38:29;10.65;;;3.45;;
3561;SDS011;1795;52.074;4.754;2022-10-26T09:41:00;7.80;;;3.05;;
3561;SDS011;1795;52.074;4.754;2022-10-26T09:43:33;6.78;;;3.17;;
3561;SDS011;1795;52.074;4.754;2022-10-26T09:46:07;6.18;;;3.15;;
3561;SDS011;1795;52.074;4.754;2022-10-26T09:48:41;5.28;;;2.80;;
3561;SDS011;1795;52.074;4.754;2022-10-26T09:51:13;5.85;;;3.30;;
3561;SDS011;1795;52.074;4.754;2022-10-26T09:53:43;7.53;;;2.80;;
3561;SDS011;1795;52.074;4.754;2022-10-26T09:56:12;5.25;;;2.70;;
3561;SDS011;1795;52.074;4.754;2022-10-26T09:58:41;6.03;;;2.90;;
3561;SDS011;1795;52.074;4.754;2022-10-26T10:01:19;7.00;;;3.10;;
3561;SDS011;1795;52.074;4.754;2022-10-26T10:03:48;11.15;;;3.55;;
3561;SDS011;1795;52.074;4.754;2022-10-26T10:06:36;9.23;;;2.80;;
3561;SDS011;1795;52.074;4.754;2022-10-26T10:09:06;8.25;;;2.72;;
3561;SDS011;1795;52.074;4.754;2022-10-26T10:11:38;8.55;;;2.70;;
3561;SDS011;1795;52.074;4.754;2022-10-26T10:14:07;5.25;;;2.35;;
3561;SDS011;1795;52.074;4.754;2022-10-26T10:16:48;7.00;;;2.90;;
3561;SDS011;1795;52.074;4.754;2022-10-26T10:19:20;6.67;;;2.87;;
3561;SDS011;1795;52.074;4.754;2022-10-26T10:21:50;6.55;;;3.50;;
3561;SDS011;1795;52.074;4.754;2022-10-26T10:24:24;8.93;;;3.40;;
3561;SDS011;1795;52.074;4.754;2022-10-26T10:26:54;7.47;;;3.35;;
3561;SDS011;1795;52.074;4.754;2022-10-26T10:29:24;8.38;;;3.10;;
3561;SDS011;1795;52.074;4.754;2022-10-26T10:31:55;8.27;;;3.47;;
3561;SDS011;1795;52.074;4.754;2022-10-26T10:34:25;7.40;;;3.40;;
3561;SDS011;1795;52.074;4.754;2022-10-26T10:36:53;15.45;;;3.92;;
3561;SDS011;1795;52.074;4.754;2022-10-26T10:39:30;7.77;;;3.43;;
3561;SDS011;1795;52.074;4.754;2022-10-26T10:42:02;9.77;;;3.70;;
3561;SDS011;1795;52.074;4.754;2022-10-26T10:44:31;5.05;;;3.35;;
3561;SDS011;1795;52.074;4.754;2022-10-26T10:47:00;6.35;;;4.10;;
3561;SDS011;1795;52.074;4.754;2022-10-26T10:49:29;5.32;;;4.10;;
3561;SDS011;1795;52.074;4.754;2022-10-26T10:51:57;6.60;;;3.60;;
3561;SDS011;1795;52.074;4.754;2022-10-26T10:54:26;5.70;;;3.80;;
3561;SDS011;1795;52.074;4.754;2022-10-26T10:57:01;8.70;;;3.90;;
3561;SDS011;1795;52.074;4.754;2022-10-26T10:59:45;8.15;;;4.18;;
3561;SDS011;1795;52.074;4.754;2022-10-26T11:02:31;7.35;;;4.22;;
3561;SDS011;1795;52.074;4.754;2022-10-26T11:05:21;6.30;;;3.88;;
3561;SDS011;1795;52.074;4.754;2022-10-26T11:08:01;11.90;;;3.75;;
3561;SDS011;1795;52.074;4.754;2022-10-26T11:10:35;3.97;;;3.50;;
3561;SDS011;1795;52.074;4.754;2022-10-26T11:13:09;5.32;;;3.38;;
3561;SDS011;1795;52.074;4.754;2022-10-26T11:15:44;5.57;;;2.90;;
3561;SDS011;1795;52.074;4.754;2022-10-26T11:18:17;8.27;;;3.00;;
3561;SDS011;1795;52.074;4.754;2022-10-26T11:20:50;6.68;;;3.55;;
3561;SDS011;1795;52.074;4.754;2022-10-26T11:23:24;8.38;;;2.90;;
3561;SDS011;1795;52.074;4.754;2022-10-26T11:26:03;7.88;;;3.03;;
3561;SDS011;1795;52.074;4.754;2022-10-26T11:28:37;7.35;;;3.20;;
3561;SDS011;1795;52.074;4.754;2022-10-26T11:31:12;8.90;;;3.28;;
3561;SDS011;1795;52.074;4.754;2022-10-26T11:33:44;5.90;;;3.08;;
3561;SDS011;1795;52.074;4.754;2022-10-26T11:36:18;6.20;;;2.90;;
3561;SDS011;1795;52.074;4.754;2022-10-26T11:38:50;7.40;;;2.70;;
3561;SDS011;1795;52.074;4.754;2022-10-26T11:41:32;5.53;;;2.65;;
3561;SDS011;1795;52.074;4.754;2022-10-26T11:44:08;7.95;;;2.70;;
3561;SDS011;1795;52.074;4.754;2022-10-26T11:46:40;7.77;;;2.70;;
3561;SDS011;1795;52.074;4.754;2022-10-26T11:49:13;8.67;;;2.83;;
3561;SDS011;1795;52.074;4.754;2022-10-26T11:51:45;9.15;;;3.10;;
3561;SDS011;1795;52.074;4.754;2022-10-26T11:54:18;6.53;;;3.17;;
3561;SDS011;1795;52.074;4.754;2022-10-26T11:56:52;7.53;;;3.10;;
3561;SDS011;1795;52.074;4.754;2022-10-26T11:59:23;4.55;;;2.60;;
3561;SDS011;1795;52.074;4.754;2022-10-26T12:01:59;9.98;;;3.05;;
3561;SDS011;1795;52.074;4.754;2022-10-26T12:04:32;8.00;;;2.40;;
3561;SDS011;1795;52.074;4.754;2022-10-26T12:07:03;4.07;;;2.40;;
3561;SDS011;1795;52.074;4.754;2022-10-26T12:09:36;6.97;;;2.40;;
3561;SDS011;1795;52.074;4.754;2022-10-26T12:12:08;3.73;;;1.90;;
3561;SDS011;1795;52.074;4.754;2022-10-26T12:14:44;6.50;;;2.45;;
3561;SDS011;1795;52.074;4.754;2022-10-26T12:17:18;3.23;;;1.80;;
3561;SDS011;1795;52.074;4.754;2022-10-26T12:19:54;6.03;;;1.80;;
3561;SDS011;1795;52.074;4.754;2022-10-26T12:22:28;7.07;;;2.40;;
3561;SDS011;1795;52.074;4.754;2022-10-26T12:27:54;7.40;;;2.30;;
3561;SDS011;1795;52.074;4.754;2022-10-26T12:30:27;7.10;;;2.30;;
3561;SDS011;1795;52.074;4.754;2022-10-26T12:32:57;6.25;;;1.80;;
3561;SDS011;1795;52.074;4.754;2022-10-26T12:35:31;5.05;;;1.85;;
3561;SDS011;1795;52.074;4.754;2022-10-26T12:41:20;7.80;;;2.60;;
3561;SDS011;1795;52.074;4.754;2022-10-26T12:43:56;5.60;;;2.27;;
3561;SDS011;1795;52.074;4.754;2022-10-26T12:52:18;8.00;;;2.33;;
3561;SDS011;1795;52.074;4.754;2022-10-26T12:58:27;9.27;;;2.83;;
3561;SDS011;1795;52.074;4.754;2022-10-26T13:04:19;5.25;;;2.13;;
3561;SDS011;1795;52.074;4.754;2022-10-26T13:07:15;4.30;;;2.00;;
3561;SDS011;1795;52.074;4.754;2022-10-26T13:09:49;6.10;;;2.60;;
3561;SDS011;1795;52.074;4.754;2022-10-26T13:12:23;5.47;;;2.55;;
3561;SDS011;1795;52.074;4.754;2022-10-26T13:14:54;5.80;;;2.47;;
3561;SDS011;1795;52.074;4.754;2022-10-26T13:17:27;5.70;;;2.72;;
3561;SDS011;1795;52.074;4.754;2022-10-26T13:19:59;9.00;;;1.90;;
3561;SDS011;1795;52.074;4.754;2022-10-26T13:22:29;5.77;;;2.67;;
3561;SDS011;1795;52.074;4.754;2022-10-26T13:24:58;5.75;;;2.47;;
3561;SDS011;1795;52.074;4.754;2022-10-26T13:27:40;5.72;;;2.10;;
3561;SDS011;1795;52.074;4.754;2022-10-26T13:30:18;7.40;;;2.50;;
3561;SDS011;1795;52.074;4.754;2022-10-26T13:32:48;5.07;;;1.90;;
3561;SDS011;1795;52.074;4.754;2022-10-26T13:35:20;8.70;;;2.37;;
3561;SDS011;1795;52.074;4.754;2022-10-26T13:37:50;6.07;;;2.10;;
3561;SDS011;1795;52.074;4.754;2022-10-26T13:40:21;8.90;;;2.00;;
3561;SDS011;1795;52.074;4.754;2022-10-26T13:42:52;8.95;;;2.75;;
3561;SDS011;1795;52.074;4.754;2022-10-26T13:45:24;7.57;;;2.30;;
3561;SDS011;1795;52.074;4.754;2022-10-26T13:47:55;9.68;;;2.10;;
3561;SDS011;1795;52.074;4.754;2022-10-26T13:50:30;6.82;;;2.10;;
3561;SDS011;1795;52.074;4.754;2022-10-26T13:53:04;5.85;;;2.00;;
3561;SDS011;1795;52.074;4.754;2022-10-26T13:55:35;5.25;;;1.70;;
3561;SDS011;1795;52.074;4.754;2022-10-26T13:58:13;4.65;;;1.67;;
3561;SDS011;1795;52.074;4.754;2022-10-26T14:01:01;9.95;;;1.90;;
3561;SDS011;1795;52.074;4.754;2022-10-26T14:03:31;6.32;;;1.67;;
3561;SDS011;1795;52.074;4.754;2022-10-26T14:06:03;4.60;;;2.20;;
3561;SDS011;1795;52.074;4.754;2022-10-26T14:08:31;9.07;;;1.88;;
3561;SDS011;1795;52.074;4.754;2022-10-26T14:10:59;5.80;;;2.33;;
3561;SDS011;1795;52.074;4.754;2022-10-26T14:13:28;7.25;;;2.08;;
3561;SDS011;1795;52.074;4.754;2022-10-26T14:15:58;9.57;;;1.80;;
3561;SDS011;1795;52.074;4.754;2022-10-26T14:18:26;4.32;;;1.40;;
3561;SDS011;1795;52.074;4.754;2022-10-26T14:20:57;7.53;;;2.15;;
3561;SDS011;1795;52.074;4.754;2022-10-26T14:23:32;4.15;;;1.60;;
3561;SDS011;1795;52.074;4.754;2022-10-26T14:26:01;5.38;;;1.90;;
3561;SDS011;1795;52.074;4.754;2022-10-26T14:28:30;6.60;;;1.50;;
3561;SDS011;1795;52.074;4.754;2022-10-26T14:31:11;5.22;;;1.55;;
3561;SDS011;1795;52.074;4.754;2022-10-26T14:33:45;4.97;;;1.83;;
3561;SDS011;1795;52.074;4.754;2022-10-26T14:36:14;7.40;;;1.60;;
3561;SDS011;1795;52.074;4.754;2022-10-26T14:38:45;7.50;;;2.20;;
3561;SDS011;1795;52.074;4.754;2022-10-26T14:41:16;7.78;;;1.70;;
3561;SDS011;1795;52.074;4.754;2022-10-26T14:43:44;2.90;;;1.50;;
3561;SDS011;1795;52.074;4.754;2022-10-26T14:46:13;6.50;;;1.30;;
3561;SDS011;1795;52.074;4.754;2022-10-26T14:48:49;8.70;;;1.90;;
3561;SDS011;1795;52.074;4.754;2022-10-26T14:51:21;6.75;;;1.33;;
3561;SDS011;1795;52.074;4.754;2022-10-26T14:53:53;4.28;;;1.90;;
3561;SDS011;1795;52.074;4.754;2022-10-26T14:56:24;3.05;;;1.30;;
3561;SDS011;1795;52.074;4.754;2022-10-26T14:58:55;5.07;;;1.88;;
3561;SDS011;1795;52.074;4.754;2022-10-26T15:01:30;7.00;;;1.80;;
3561;SDS011;1795;52.074;4.754;2022-10-26T15:04:02;4.60;;;1.70;;
3561;SDS011;1795;52.074;4.754;2022-10-26T15:06:34;4.60;;;1.60;;
3561;SDS011;1795;52.074;4.754;2022-10-26T15:09:06;5.35;;;1.80;;
3561;SDS011;1795;52.074;4.754;2022-10-26T15:11:55;8.77;;;1.80;;
3561;SDS011;1795;52.074;4.754;2022-10-26T15:14:23;4.57;;;1.40;;
3561;SDS011;1795;52.074;4.754;2022-10-26T15:16:53;9.80;;;1.88;;
3561;SDS011;1795;52.074;4.754;2022-10-26T15:19:21;4.43;;;1.50;;
3561;SDS011;1795;52.074;4.754;2022-10-26T15:21:52;5.57;;;1.70;;
3561;SDS011;1795;52.074;4.754;2022-10-26T15:24:25;5.30;;;2.00;;
3561;SDS011;1795;52.074;4.754;2022-10-26T15:27:01;6.28;;;1.85;;
3561;SDS011;1795;52.074;4.754;2022-10-26T15:29:33;3.38;;;1.50;;
3561;SDS011;1795;52.074;4.754;2022-10-26T15:32:03;3.53;;;1.50;;
3561;SDS011;1795;52.074;4.754;2022-10-26T15:34:32;5.60;;;1.92;;
3561;SDS011;1795;52.074;4.754;2022-10-26T15:37:02;5.25;;;1.70;;
3561;SDS011;1795;52.074;4.754;2022-10-26T15:39:30;5.43;;;1.90;;
3561;SDS011;1795;52.074;4.754;2022-10-26T15:41:58;5.00;;;1.70;;
3561;SDS011;1795;52.074;4.754;2022-10-26T15:44:26;5.45;;;1.52;;
3561;SDS011;1795;52.074;4.754;2022-10-26T15:46:54;6.75;;;1.90;;
3561;SDS011;1795;52.074;4.754;2022-10-26T15:49:33;4.85;;;1.67;;
3561;SDS011;1795;52.074;4.754;2022-10-26T15:52:04;3.30;;;1.50;;
3561;SDS011;1795;52.074;4.754;2022-10-26T15:54:35;6.50;;;1.73;;
3561;SDS011;1795;52.074;4.754;2022-10-26T15:57:03;3.53;;;1.63;;
3561;SDS011;1795;52.074;4.754;2022-10-26T15:59:36;5.38;;;1.65;;
3561;SDS011;1795;52.074;4.754;2022-10-26T16:02:10;4.80;;;1.40;;
3561;SDS011;1795;52.074;4.754;2022-10-26T16:04:40;4.82;;;2.00;;
3561;SDS011;1795;52.074;4.754;2022-10-26T16:07:11;5.78;;;1.90;;